Аэропорт: Домодедово. Москва

ICAO: UUDD

METAR:
2020-08-13 11:30:00
UUDD 131130Z 34006MPS 6000 -SHRA BKN007 BKN023CB 14/12 Q1011 R88/290042 NOSIG
METAR:
2020-08-13 07:54:00
TAF UUDD 130754Z 1309/1415 34006MPS 9999 FEW007 BKN012 TX16/1312Z TN10/1402Z TEMPO 1309/1321 34008G13MPS 2200 -SHRA FEW004 BKN016CB